Time;durP1;ratioP1;P1;durP2;ratioP2;P2;SDS_P1;SDS_P2;PMS_P1;PMS_P2;Temp;Humidity;BMP_temperature;BMP_pressure;BME280_temperature;BME280_humidity;BME280_pressure;Samples;Min_cycle;Max_cycle;Signal;HPM_P1;HPM_P2
2021/01/26 06:01:30;;;;;;;19.93;9.80;;;-1.00;97.30;;;;;;5567150;23;21002;-75
2021/01/26 06:04:26;;;;;;;26.27;12.43;;;-1.00;97.30;;;;;;4916340;29;20440;-74
2021/01/26 06:07:00;;;;;;;24.73;11.57;;;-1.00;97.30;;;;;;4912235;29;20424;-75
2021/01/26 06:09:42;;;;;;;19.33;9.93;;;-1.00;97.30;;;;;;4916127;29;20417;-74
2021/01/26 06:12:16;;;;;;;21.40;10.87;;;-1.00;97.30;;;;;;4901790;29;20440;-74
2021/01/26 06:14:45;;;;;;;20.90;10.47;;;-1.00;97.30;;;;;;4896802;29;20468;-74
2021/01/26 06:17:21;;;;;;;18.40;9.93;;;-1.00;97.30;;;;;;4896923;29;20406;-74
2021/01/26 06:20:07;;;;;;;18.17;9.00;;;-1.00;97.30;;;;;;4898033;29;20428;-74
2021/01/26 06:22:34;;;;;;;18.37;8.87;;;-0.90;97.30;;;;;;4897184;29;20998;-74
2021/01/26 06:25:08;;;;;;;19.37;9.43;;;-0.90;97.30;;;;;;4897491;29;20857;-74
2021/01/26 06:27:40;;;;;;;24.87;9.53;;;-0.90;97.30;;;;;;4898618;29;20504;-74
2021/01/26 06:30:33;;;;;;;16.00;8.23;;;-0.80;97.30;;;;;;4896603;29;20429;-74
2021/01/26 06:33:14;;;;;;;20.03;9.23;;;-0.80;97.30;;;;;;4897332;29;20513;-74
2021/01/26 06:36:13;;;;;;;18.00;9.17;;;-0.80;97.30;;;;;;4896856;29;20503;-74
2021/01/26 06:39:14;;;;;;;17.37;7.97;;;-0.70;97.30;;;;;;4896762;29;20468;-74
2021/01/26 06:42:03;;;;;;;22.13;9.30;;;-0.70;97.30;;;;;;4897053;29;20508;-73
2021/01/26 06:44:51;;;;;;;17.23;8.17;;;-0.70;97.30;;;;;;4897643;29;20420;-74
2021/01/26 06:47:53;;;;;;;16.87;8.80;;;-0.80;97.30;;;;;;4900895;29;20427;-74
2021/01/26 06:50:44;;;;;;;19.53;9.80;;;-0.80;97.30;;;;;;4899847;29;20453;-74
2021/01/26 06:53:28;;;;;;;17.43;9.00;;;-0.80;97.30;;;;;;4900416;29;20414;-74
2021/01/26 06:56:06;;;;;;;16.83;8.73;;;-0.80;97.30;;;;;;4900520;29;20870;-73
2021/01/26 06:58:59;;;;;;;20.30;10.03;;;-0.80;97.30;;;;;;4900022;29;20506;-72
2021/01/26 07:02:03;;;;;;;13.80;8.90;;;-0.80;97.30;;;;;;4900113;29;20470;-73
2021/01/26 07:05:09;;;;;;;19.00;8.70;;;-0.80;97.30;;;;;;4899700;29;20421;-73
2021/01/26 07:08:13;;;;;;;14.77;9.43;;;-0.70;97.30;;;;;;4864653;29;20448;-74
2021/01/26 07:10:49;;;;;;;16.60;8.90;;;-0.70;97.30;;;;;;4899346;29;20532;-73
2021/01/26 07:13:20;;;;;;;17.90;9.30;;;-0.70;97.30;;;;;;4900044;29;20931;-73
2021/01/26 07:16:04;;;;;;;18.77;9.83;;;-0.70;97.30;;;;;;4901675;29;20468;-74
2021/01/26 07:18:47;;;;;;;21.23;10.77;;;-0.70;97.30;;;;;;4899621;29;20422;-74
2021/01/26 07:21:37;;;;;;;19.57;10.50;;;-0.60;97.30;;;;;;4899202;29;20484;-74
2021/01/26 07:24:20;;;;;;;19.07;9.73;;;-0.60;97.30;;;;;;4901412;29;20422;-74
2021/01/26 07:26:58;;;;;;;18.93;9.80;;;-0.60;97.30;;;;;;4899599;29;20497;-74
2021/01/26 07:29:36;;;;;;;20.70;10.83;;;-0.60;97.30;;;;;;4899701;29;20777;-74
2021/01/26 07:32:26;;;;;;;21.10;11.53;;;-0.60;97.30;;;;;;4899823;29;20496;-74
2021/01/26 07:35:06;;;;;;;26.03;11.73;;;-0.50;97.30;;;;;;4899220;29;20469;-74
2021/01/26 07:37:58;;;;;;;23.97;11.53;;;-0.50;97.30;;;;;;4900880;29;20419;-73
2021/01/26 07:40:30;;;;;;;22.97;10.97;;;-0.40;97.30;;;;;;4899955;29;20428;-74
2021/01/26 07:43:06;;;;;;;24.57;12.60;;;-0.40;97.30;;;;;;4911002;29;20412;-75
2021/01/26 07:45:45;;;;;;;21.70;11.33;;;-0.40;97.30;;;;;;4910571;29;20425;-71
2021/01/26 07:48:19;;;;;;;25.77;12.37;;;-0.40;97.30;;;;;;4903851;29;20445;-74
2021/01/26 07:50:46;;;;;;;28.67;12.87;;;-0.30;97.30;;;;;;4900426;29;20449;-75
2021/01/26 07:53:32;;;;;;;21.77;10.70;;;-0.30;97.30;;;;;;4899175;29;20421;-76
2021/01/26 07:56:37;;;;;;;27.17;12.80;;;-0.20;97.30;;;;;;4898801;29;20445;-74
2021/01/26 07:59:24;;;;;;;27.33;12.10;;;-0.20;97.30;;;;;;4900896;29;20450;-74
2021/01/26 08:01:54;;;;;;;30.50;12.53;;;-0.20;97.30;;;;;;4899681;29;20505;-74
2021/01/26 08:04:20;;;;;;;24.80;12.37;;;-0.20;97.30;;;;;;4899717;29;20430;-75
2021/01/26 08:06:50;;;;;;;29.70;13.23;;;-0.20;97.30;;;;;;4900570;29;20473;-75
2021/01/26 08:09:39;;;;;;;26.87;13.50;;;-0.10;97.30;;;;;;4899036;29;20429;-76
2021/01/26 08:12:29;;;;;;;26.17;13.30;;;-0.10;97.30;;;;;;4900764;29;20425;-76
2021/01/26 08:15:08;;;;;;;30.63;13.90;;;0.00;97.30;;;;;;4893923;29;20461;-74
2021/01/26 08:17:36;;;;;;;26.87;12.60;;;0.00;97.30;;;;;;4885650;29;20425;-76
2021/01/26 08:20:15;;;;;;;30.43;13.87;;;0.00;97.30;;;;;;4901865;29;20433;-76
2021/01/26 08:22:46;;;;;;;32.63;14.33;;;0.00;97.30;;;;;;4901782;29;20931;-74
2021/01/26 08:25:39;;;;;;;28.93;13.87;;;0.10;97.30;;;;;;4901428;29;20417;-75
2021/01/26 08:28:11;;;;;;;28.77;14.30;;;0.10;97.30;;;;;;4902038;29;20426;-76
2021/01/26 08:30:48;;;;;;;35.97;16.73;;;0.20;97.30;;;;;;4900702;29;20445;-75
2021/01/26 08:33:18;;;;;;;27.73;13.83;;;0.20;97.30;;;;;;4900922;29;20426;-76
2021/01/26 08:36:28;;;;;;;37.87;15.83;;;0.20;97.30;;;;;;4900194;29;20469;-75
2021/01/26 08:38:57;;;;;;;27.80;13.80;;;0.20;97.30;;;;;;4895043;29;20860;-76
2021/01/26 08:41:34;;;;;;;32.97;15.27;;;0.30;97.30;;;;;;4898714;29;20880;-75
2021/01/26 08:44:00;;;;;;;33.33;15.20;;;0.30;97.30;;;;;;4898667;29;20933;-75
2021/01/26 08:46:34;;;;;;;35.00;15.00;;;0.30;97.30;;;;;;4898191;29;20556;-76
2021/01/26 08:49:21;;;;;;;30.10;14.13;;;0.40;97.30;;;;;;4898971;29;20729;-76
2021/01/26 08:51:47;;;;;;;34.93;14.67;;;0.50;97.30;;;;;;4897639;29;20506;-76
2021/01/26 08:54:43;;;;;;;32.20;14.90;;;0.50;97.30;;;;;;4898101;29;20600;-75
2021/01/26 08:57:27;;;;;;;36.77;13.90;;;0.60;97.30;;;;;;4896793;29;20507;-76
2021/01/26 08:59:58;;;;;;;25.37;12.80;;;0.70;97.30;;;;;;4897512;29;20461;-76
2021/01/26 09:02:43;;;;;;;28.23;13.83;;;0.80;97.30;;;;;;4898716;29;20468;-76
2021/01/26 09:05:12;;;;;;;26.13;13.10;;;0.80;97.30;;;;;;4898522;29;20423;-76
2021/01/26 09:07:58;;;;;;;24.90;13.80;;;0.80;97.30;;;;;;4897651;29;20473;-73
2021/01/26 09:10:39;;;;;;;33.13;12.43;;;0.80;97.30;;;;;;4897556;29;20458;-76
2021/01/26 09:13:27;;;;;;;29.83;13.60;;;0.90;97.30;;;;;;4897855;29;20951;-75
2021/01/26 09:15:58;;;;;;;26.60;13.30;;;0.90;97.30;;;;;;4897517;29;20831;-75
2021/01/26 09:18:28;;;;;;;27.20;13.07;;;1.00;97.30;;;;;;4898443;29;20916;-76
2021/01/26 09:21:06;;;;;;;25.00;13.07;;;1.00;97.30;;;;;;4900125;29;20553;-76
2021/01/26 09:23:35;;;;;;;26.70;12.77;;;1.00;97.30;;;;;;4900917;29;20429;-76
2021/01/26 09:26:12;;;;;;;25.47;13.20;;;1.00;97.30;;;;;;4901019;29;20434;-76
2021/01/26 09:28:41;;;;;;;30.00;13.10;;;1.00;97.30;;;;;;4901328;29;20518;-75
2021/01/26 09:31:13;;;;;;;26.57;13.70;;;1.00;97.30;;;;;;4900588;29;20885;-76
2021/01/26 09:33:41;;;;;;;26.10;12.57;;;1.00;97.30;;;;;;4900683;29;20457;-75
2021/01/26 09:36:17;;;;;;;29.93;13.87;;;1.10;97.30;;;;;;4932719;29;20437;-76
2021/01/26 09:38:50;;;;;;;24.77;13.30;;;1.20;97.30;;;;;;4901155;29;20425;-75
2021/01/26 09:41:20;;;;;;;24.93;13.43;;;1.20;97.30;;;;;;4900956;29;20441;-75
2021/01/26 09:43:49;;;;;;;29.37;13.23;;;1.20;97.30;;;;;;4903043;29;20410;-74
2021/01/26 09:46:26;;;;;;;24.67;13.67;;;1.30;97.30;;;;;;4902621;29;20413;-74
2021/01/26 09:49:06;;;;;;;25.43;12.77;;;1.40;97.30;;;;;;4902307;29;20508;-74
2021/01/26 09:52:01;;;;;;;28.80;13.20;;;1.30;97.30;;;;;;4895475;29;20444;-76
2021/01/26 09:54:29;;;;;;;26.83;13.53;;;1.40;97.30;;;;;;4890219;29;20563;-74
2021/01/26 09:56:57;;;;;;;31.13;11.90;;;1.40;97.30;;;;;;4896843;29;20427;-74
2021/01/26 09:59:24;;;;;;;30.13;14.90;;;1.40;97.30;;;;;;4897465;29;21056;-74
2021/01/26 10:01:50;;;;;;;27.17;13.80;;;1.40;97.30;;;;;;4897348;29;20516;-74
2021/01/26 10:04:20;;;;;;;26.10;12.27;;;1.40;97.30;;;;;;4896999;29;20935;-74
2021/01/26 10:06:47;;;;;;;27.00;13.10;;;1.40;97.30;;;;;;4897722;29;20447;-74
2021/01/26 10:09:22;;;;;;;28.63;13.30;;;1.40;97.30;;;;;;4909830;29;20517;-74
2021/01/26 10:11:49;;;;;;;25.93;12.90;;;1.30;97.30;;;;;;4903570;29;20452;-74
2021/01/26 10:14:24;;;;;;;36.17;14.70;;;1.30;97.30;;;;;;4895541;29;20544;-74
2021/01/26 10:16:55;;;;;;;53.50;20.37;;;1.30;97.30;;;;;;4897558;29;20563;-74
2021/01/26 10:19:32;;;;;;;29.90;14.17;;;1.40;97.30;;;;;;4898439;29;20417;-74
2021/01/26 10:22:26;;;;;;;28.97;13.67;;;1.40;97.30;;;;;;4900729;29;20503;-74
2021/01/26 10:24:52;;;;;;;27.73;13.43;;;1.40;97.30;;;;;;4899082;29;20428;-73
2021/01/26 10:27:23;;;;;;;28.60;13.97;;;1.50;97.30;;;;;;4901656;29;20416;-74
2021/01/26 10:30:05;;;;;;;29.27;14.60;;;1.60;97.30;;;;;;4900822;29;20242;-74
2021/01/26 10:32:46;;;;;;;28.67;13.83;;;1.70;97.30;;;;;;4900534;29;20480;-73
2021/01/26 10:35:26;;;;;;;27.30;12.93;;;1.80;97.30;;;;;;4900573;29;20900;-74
2021/01/26 10:37:53;;;;;;;23.50;13.57;;;1.80;97.30;;;;;;4900866;29;20429;-74
2021/01/26 10:40:28;;;;;;;28.70;13.17;;;1.80;97.30;;;;;;4900148;29;20424;-73
2021/01/26 10:43:02;;;;;;;24.93;12.27;;;1.70;97.30;;;;;;4900320;29;20425;-73
2021/01/26 10:45:42;;;;;;;26.27;12.90;;;1.80;97.30;;;;;;4901004;29;20420;-72
2021/01/26 10:48:34;;;;;;;30.07;12.60;;;1.90;97.30;;;;;;4900027;29;20421;-73
2021/01/26 10:51:28;;;;;;;24.67;12.03;;;2.00;97.30;;;;;;4900046;29;20455;-74
2021/01/26 10:53:57;;;;;;;23.30;11.97;;;2.00;97.30;;;;;;4882243;29;20423;-73
2021/01/26 10:56:23;;;;;;;24.30;12.23;;;2.00;97.30;;;;;;4883072;29;20437;-74
2021/01/26 10:58:49;;;;;;;23.33;11.80;;;1.90;97.30;;;;;;4881688;29;20732;-73
2021/01/26 11:01:21;;;;;;;29.23;13.03;;;1.80;97.30;;;;;;4881018;29;20233;-73
2021/01/26 11:03:48;;;;;;;25.27;12.20;;;1.80;97.30;;;;;;4881305;29;20415;-73
2021/01/26 11:06:14;;;;;;;28.83;13.30;;;1.60;97.30;;;;;;4881587;29;20419;-73
2021/01/26 11:08:41;;;;;;;30.60;13.20;;;1.60;97.30;;;;;;4882773;29;20918;-73
2021/01/26 11:11:06;;;;;;;27.70;14.40;;;1.50;97.30;;;;;;4880938;29;20205;-73
2021/01/26 11:13:32;;;;;;;28.23;13.53;;;1.50;97.30;;;;;;4898394;29;20421;-73
2021/01/26 11:15:58;;;;;;;28.23;13.00;;;1.60;97.30;;;;;;4900892;29;20208;-73
2021/01/26 11:18:24;;;;;;;25.63;13.03;;;1.70;97.30;;;;;;4901330;29;20176;-73
2021/01/26 11:20:49;;;;;;;26.70;13.40;;;1.70;97.30;;;;;;4899812;29;20679;-73
2021/01/26 11:23:16;;;;;;;28.77;14.03;;;1.70;97.30;;;;;;4899579;29;20185;-73
2021/01/26 11:25:41;;;;;;;31.03;13.73;;;1.80;97.30;;;;;;4899640;29;20177;-73
2021/01/26 11:28:08;;;;;;;29.10;15.33;;;1.80;97.30;;;;;;4901304;29;20507;-73
2021/01/26 11:30:34;;;;;;;31.87;16.07;;;1.90;97.30;;;;;;4900564;29;20224;-74
2021/01/26 11:33:01;;;;;;;30.70;16.00;;;1.90;97.30;;;;;;4899411;29;20434;-74
2021/01/26 11:35:27;;;;;;;28.77;14.60;;;1.90;97.30;;;;;;4899927;29;20216;-77
2021/01/26 11:37:54;;;;;;;33.63;15.37;;;2.00;97.30;;;;;;4899292;29;20888;-75
2021/01/26 11:40:20;;;;;;;29.43;14.87;;;2.00;97.30;;;;;;4899193;29;20429;-75
2021/01/26 11:42:46;;;;;;;33.13;14.37;;;1.90;97.30;;;;;;4899929;29;20418;-77
2021/01/26 11:45:28;;;;;;;30.90;14.90;;;1.90;97.30;;;;;;4899336;29;20432;-77
2021/01/26 11:47:53;;;;;;;32.00;15.00;;;1.90;97.30;;;;;;4896181;29;20438;-74
2021/01/26 11:50:20;;;;;;;35.10;15.13;;;1.90;97.30;;;;;;4899790;29;20432;-76
2021/01/26 11:52:46;;;;;;;32.53;15.13;;;1.90;97.30;;;;;;4898985;29;20530;-74
2021/01/26 11:55:20;;;;;;;33.17;15.67;;;1.90;97.30;;;;;;4898811;29;20513;-74
2021/01/26 11:57:46;;;;;;;31.00;14.60;;;1.90;97.30;;;;;;4899082;29;20224;-77
2021/01/26 12:00:15;;;;;;;32.97;14.33;;;1.90;97.30;;;;;;4898539;29;20466;-74
2021/01/26 12:02:41;;;;;;;39.90;17.60;;;1.90;97.30;;;;;;4898360;29;20438;-74
2021/01/26 12:05:08;;;;;;;34.23;16.07;;;1.90;97.30;;;;;;4899009;29;20973;-76
2021/01/26 12:07:33;;;;;;;35.40;15.67;;;1.90;97.30;;;;;;4898794;29;20636;-77
2021/01/26 12:09:59;;;;;;;34.43;16.27;;;1.90;97.30;;;;;;4899295;29;20489;-77
2021/01/26 12:12:25;;;;;;;36.90;17.60;;;1.80;97.30;;;;;;4900394;29;20201;-77
2021/01/26 12:14:50;;;;;;;33.60;16.50;;;1.70;97.30;;;;;;4898769;29;20284;-78
2021/01/26 12:17:16;;;;;;;32.77;15.63;;;1.70;97.30;;;;;;4900018;29;20185;-74
2021/01/26 12:19:42;;;;;;;41.30;18.53;;;1.70;97.30;;;;;;4899289;29;20529;-76
2021/01/26 12:22:08;;;;;;;33.17;15.53;;;1.70;97.30;;;;;;4899842;29;20197;-72
2021/01/26 12:24:34;;;;;;;33.80;15.37;;;1.70;97.30;;;;;;4899070;29;20178;-75
2021/01/26 12:27:00;;;;;;;41.43;17.70;;;1.80;97.30;;;;;;4899114;29;20501;-74
2021/01/26 12:29:26;;;;;;;40.07;15.50;;;1.80;97.30;;;;;;4898376;29;20516;-74
2021/01/26 12:31:51;;;;;;;43.20;19.00;;;1.80;97.30;;;;;;4898392;29;20204;-73
2021/01/26 12:34:17;;;;;;;39.60;16.40;;;1.90;97.30;;;;;;4899443;29;20285;-76
2021/01/26 12:36:46;;;;;;;41.33;16.53;;;1.90;97.30;;;;;;4900666;29;20280;-78
2021/01/26 12:39:17;;;;;;;38.63;17.60;;;1.80;97.30;;;;;;4902120;29;20714;-77
2021/01/26 12:41:47;;;;;;;39.40;16.70;;;1.70;97.30;;;;;;4908667;29;20442;-78
2021/01/26 12:44:13;;;;;;;37.40;16.70;;;1.70;97.30;;;;;;4912320;29;20417;-75
2021/01/26 12:46:38;;;;;;;45.20;20.03;;;1.60;97.30;;;;;;4902467;29;20469;-73
2021/01/26 12:49:05;;;;;;;49.63;20.33;;;1.50;97.30;;;;;;4900355;29;20616;-76
2021/01/26 12:51:31;;;;;;;51.60;20.07;;;1.50;97.30;;;;;;4901340;29;20204;-76
2021/01/26 12:53:57;;;;;;;48.40;20.80;;;1.50;97.30;;;;;;4898564;29;20429;-72
2021/01/26 12:56:23;;;;;;;42.27;17.57;;;1.50;97.30;;;;;;4899257;29;20554;-73
2021/01/26 12:58:49;;;;;;;42.10;18.13;;;1.50;97.30;;;;;;4897484;29;20197;-75
2021/01/26 13:01:16;;;;;;;44.50;17.80;;;1.50;97.30;;;;;;4899228;29;20493;-78
2021/01/26 13:03:41;;;;;;;48.63;20.07;;;1.50;97.30;;;;;;4898322;29;20426;-73
2021/01/26 13:06:07;;;;;;;57.27;21.00;;;1.50;97.30;;;;;;4897646;29;21179;-76
2021/01/26 13:08:36;;;;;;;48.13;21.10;;;1.50;97.30;;;;;;4899109;29;20185;-75
2021/01/26 13:11:02;;;;;;;50.73;20.03;;;1.50;97.30;;;;;;4898729;29;20448;-73
2021/01/26 13:13:28;;;;;;;52.10;19.87;;;1.50;97.30;;;;;;4897616;29;20457;-74
2021/01/26 13:15:54;;;;;;;49.43;20.10;;;1.50;97.30;;;;;;4897979;29;20209;-74
2021/01/26 13:18:20;;;;;;;49.27;20.27;;;1.50;97.30;;;;;;4898458;29;20488;-74
2021/01/26 13:20:46;;;;;;;52.07;20.87;;;1.50;97.30;;;;;;4897548;29;20714;-74
2021/01/26 13:23:12;;;;;;;53.97;21.57;;;1.50;97.30;;;;;;4899045;29;20517;-74
2021/01/26 13:25:38;;;;;;;56.10;20.80;;;1.50;97.30;;;;;;4898544;29;20189;-74
2021/01/26 13:28:04;;;;;;;48.87;20.13;;;1.50;97.30;;;;;;4897701;29;20681;-73
2021/01/26 13:30:30;;;;;;;51.37;20.97;;;1.50;97.30;;;;;;4897946;29;20457;-73
2021/01/26 13:32:57;;;;;;;52.40;19.83;;;1.50;97.30;;;;;;4897814;29;20425;-74
2021/01/26 13:35:30;;;;;;;56.33;23.53;;;1.50;97.30;;;;;;4897403;29;20994;-74
2021/01/26 13:37:57;;;;;;;55.27;22.20;;;1.50;97.30;;;;;;4898813;29;20513;-73
2021/01/26 13:40:23;;;;;;;50.60;21.90;;;1.50;97.30;;;;;;4897854;29;20509;-73
2021/01/26 13:42:50;;;;;;;58.27;24.50;;;1.50;97.30;;;;;;4896571;29;20481;-74
2021/01/26 13:45:19;;;;;;;55.17;21.70;;;1.50;97.30;;;;;;4899684;29;20414;-78
2021/01/26 13:47:44;;;;;;;57.13;22.70;;;1.50;97.30;;;;;;4898574;29;20468;-74
2021/01/26 13:50:12;;;;;;;56.80;22.80;;;1.50;97.30;;;;;;4897131;29;20804;-72
2021/01/26 13:52:38;;;;;;;56.00;22.53;;;1.50;97.30;;;;;;4897992;29;20213;-72
2021/01/26 13:55:05;;;;;;;55.60;23.30;;;1.50;97.30;;;;;;4896820;29;20465;-72
2021/01/26 13:57:31;;;;;;;59.13;22.63;;;1.50;97.30;;;;;;4897010;29;20453;-73
2021/01/26 13:59:56;;;;;;;59.03;23.00;;;1.50;97.30;;;;;;4897848;29;20468;-78
2021/01/26 14:02:27;;;;;;;57.87;22.77;;;1.50;97.30;;;;;;4900546;29;20231;-79
2021/01/26 14:04:53;;;;;;;64.10;24.23;;;1.50;97.30;;;;;;4899887;29;20727;-75
2021/01/26 14:07:18;;;;;;;64.50;25.37;;;1.50;97.30;;;;;;4896984;29;20532;-70
2021/01/26 14:09:44;;;;;;;57.30;25.40;;;1.50;97.30;;;;;;4898287;29;20204;-70
2021/01/26 14:12:10;;;;;;;62.07;25.40;;;1.50;97.30;;;;;;4913774;29;20287;-71
2021/01/26 14:14:35;;;;;;;72.30;28.50;;;1.40;97.30;;;;;;4897178;29;20553;-72
2021/01/26 14:17:01;;;;;;;62.77;26.83;;;1.50;97.30;;;;;;4897913;29;20181;-72
2021/01/26 14:19:29;;;;;;;63.70;24.87;;;1.40;97.30;;;;;;4897677;29;20526;-72
2021/01/26 14:21:55;;;;;;;69.07;25.57;;;1.50;97.30;;;;;;4896627;29;20452;-73
2021/01/26 14:24:20;;;;;;;73.53;25.53;;;1.50;97.30;;;;;;4896894;29;20429;-72
2021/01/26 14:26:46;;;;;;;66.20;25.90;;;1.50;97.30;;;;;;4896861;29;20189;-73
2021/01/26 14:29:11;;;;;;;62.40;25.20;;;1.50;97.30;;;;;;4897053;29;20193;-73
2021/01/26 14:31:37;;;;;;;68.17;26.67;;;1.50;97.30;;;;;;4897202;29;20349;-71
2021/01/26 14:34:04;;;;;;;62.23;24.53;;;1.50;97.30;;;;;;4896663;29;20193;-71
2021/01/26 14:36:30;;;;;;;61.80;24.90;;;1.50;97.30;;;;;;4898055;29;20444;-70
2021/01/26 14:38:56;;;;;;;64.03;23.83;;;1.50;97.30;;;;;;4898482;29;20450;-71
2021/01/26 14:41:23;;;;;;;56.70;23.20;;;1.50;97.30;;;;;;4896761;29;20473;-72
2021/01/26 14:43:50;;;;;;;59.83;22.90;;;1.50;97.30;;;;;;4896686;29;20437;-71
2021/01/26 14:46:16;;;;;;;59.00;22.83;;;1.50;97.30;;;;;;4899060;29;20422;-80
2021/01/26 14:48:42;;;;;;;60.07;24.67;;;1.50;97.30;;;;;;4899656;29;20424;-80
2021/01/26 14:51:08;;;;;;;59.70;23.50;;;1.50;97.30;;;;;;4899962;29;20511;-78
2021/01/26 14:53:34;;;;;;;60.53;23.23;;;1.50;97.30;;;;;;4898570;29;20196;-76
2021/01/26 14:55:59;;;;;;;54.53;22.37;;;1.50;97.30;;;;;;4896994;29;20268;-73
2021/01/26 14:58:25;;;;;;;59.63;23.80;;;1.50;97.30;;;;;;4897351;29;21156;-71
2021/01/26 15:00:51;;;;;;;61.13;22.70;;;1.50;97.30;;;;;;4896305;29;20205;-73
2021/01/26 15:03:16;;;;;;;57.30;21.57;;;1.50;97.30;;;;;;4896756;29;20169;-73
2021/01/26 15:05:42;;;;;;;53.63;21.97;;;1.60;97.30;;;;;;4897615;29;20199;-75
2021/01/26 15:08:08;;;;;;;50.77;21.40;;;1.60;97.30;;;;;;4900914;29;20280;-75
2021/01/26 15:10:34;;;;;;;46.47;20.53;;;1.60;97.30;;;;;;4900148;29;20185;-78
2021/01/26 15:12:59;;;;;;;59.53;22.40;;;1.60;97.30;;;;;;4900675;29;20196;-75
2021/01/26 15:15:27;;;;;;;49.23;20.37;;;1.60;97.30;;;;;;4911585;29;20204;-76
2021/01/26 15:17:53;;;;;;;49.90;19.77;;;1.60;97.30;;;;;;4908999;29;20192;-74
2021/01/26 15:20:24;;;;;;;55.70;21.40;;;1.60;97.30;;;;;;4901493;29;20938;-76
2021/01/26 15:22:50;;;;;;;48.13;19.87;;;1.70;97.30;;;;;;4901582;29;20221;-76
2021/01/26 15:25:16;;;;;;;48.43;21.23;;;1.70;97.30;;;;;;4901196;29;20436;-75
2021/01/26 15:27:42;;;;;;;54.70;20.87;;;1.70;97.30;;;;;;4900274;29;20189;-72
2021/01/26 15:30:12;;;;;;;50.07;19.83;;;1.70;97.30;;;;;;4901783;29;20918;-72
2021/01/26 15:32:38;;;;;;;56.27;21.80;;;1.70;97.30;;;;;;4899367;29;20461;-77
2021/01/26 15:35:05;;;;;;;56.17;21.50;;;1.70;97.30;;;;;;4897444;29;20469;-72
2021/01/26 15:37:33;;;;;;;55.83;22.53;;;1.70;97.30;;;;;;4900241;29;20191;-76
2021/01/26 15:39:58;;;;;;;62.80;23.90;;;1.70;97.30;;;;;;4900964;29;20448;-75
2021/01/26 15:42:24;;;;;;;62.60;23.60;;;1.70;97.30;;;;;;4898092;29;20959;-75
2021/01/26 15:44:50;;;;;;;50.77;20.20;;;1.70;97.30;;;;;;4899340;29;20580;-75
2021/01/26 15:47:17;;;;;;;60.93;23.13;;;1.70;97.30;;;;;;4899898;29;20185;-77
2021/01/26 15:49:42;;;;;;;69.23;27.00;;;1.70;97.30;;;;;;4899524;29;20951;-73
2021/01/26 15:52:08;;;;;;;56.10;22.60;;;1.70;97.30;;;;;;4897514;29;20458;-76
2021/01/26 15:54:34;;;;;;;50.50;19.70;;;1.60;97.30;;;;;;4899813;29;20219;-77
2021/01/26 15:57:00;;;;;;;69.60;26.40;;;1.60;97.30;;;;;;4899880;29;20178;-78
2021/01/26 15:59:26;;;;;;;146.67;83.10;;;1.60;97.30;;;;;;4899032;29;20540;-72
2021/01/26 16:01:51;;;;;;;56.47;23.03;;;1.60;97.30;;;;;;4899403;29;20758;-77
2021/01/26 16:04:17;;;;;;;50.30;18.87;;;1.60;97.30;;;;;;4899273;29;20430;-76
2021/01/26 16:06:46;;;;;;;52.80;21.83;;;1.60;97.30;;;;;;4897177;29;20718;-77
2021/01/26 16:09:13;;;;;;;54.80;21.73;;;1.60;97.30;;;;;;4899363;29;20441;-74
2021/01/26 16:11:39;;;;;;;56.07;21.00;;;1.60;97.30;;;;;;4900282;29;20481;-74
2021/01/26 16:14:05;;;;;;;56.83;22.03;;;1.70;97.30;;;;;;4901733;29;20425;-76
2021/01/26 16:16:31;;;;;;;77.43;32.30;;;1.70;97.30;;;;;;4900150;29;20432;-71
2021/01/26 16:18:57;;;;;;;84.13;32.87;;;1.80;97.30;;;;;;4900316;29;20509;-76
2021/01/26 16:21:23;;;;;;;67.60;26.73;;;1.80;97.30;;;;;;4899519;29;20480;-79
2021/01/26 16:23:50;;;;;;;83.67;36.63;;;1.80;97.30;;;;;;4900100;29;20201;-77
2021/01/26 16:26:16;;;;;;;61.23;25.03;;;1.80;97.30;;;;;;4898693;29;20434;-77
2021/01/26 16:28:43;;;;;;;59.20;21.90;;;1.80;97.30;;;;;;4899673;29;20460;-77
2021/01/26 16:31:09;;;;;;;55.03;22.47;;;1.70;97.30;;;;;;4901311;29;20528;-77
2021/01/26 16:33:36;;;;;;;52.87;22.00;;;1.70;97.30;;;;;;4900649;29;20810;-80
2021/01/26 16:36:02;;;;;;;48.07;18.67;;;1.80;97.30;;;;;;4899353;29;20461;-77
2021/01/26 16:38:34;;;;;;;52.23;18.93;;;1.70;97.30;;;;;;4900575;29;20430;-81
2021/01/26 16:41:00;;;;;;;40.50;17.87;;;1.80;97.30;;;;;;4896475;29;20446;-73
2021/01/26 16:43:28;;;;;;;51.57;20.27;;;1.80;97.30;;;;;;4907116;29;20434;-74
2021/01/26 16:45:55;;;;;;;45.30;18.00;;;1.70;97.30;;;;;;4906402;29;20438;-75
2021/01/26 16:48:23;;;;;;;47.10;17.10;;;1.70;97.30;;;;;;4899623;29;20462;-79
2021/01/26 16:50:49;;;;;;;44.10;18.07;;;1.80;97.30;;;;;;4906780;29;20440;-74
2021/01/26 16:53:15;;;;;;;41.47;18.17;;;1.70;97.30;;;;;;4912856;29;20802;-77
2021/01/26 16:55:42;;;;;;;49.60;19.23;;;1.80;97.30;;;;;;4903178;29;20472;-75
2021/01/26 16:58:10;;;;;;;41.43;17.27;;;1.80;97.30;;;;;;4899596;29;20429;-73
2021/01/26 17:00:37;;;;;;;52.27;18.17;;;1.80;97.30;;;;;;4890845;29;20447;-73
2021/01/26 17:03:05;;;;;;;46.60;17.80;;;1.80;97.30;;;;;;4898081;29;20477;-72
2021/01/26 17:05:34;;;;;;;49.47;17.07;;;1.80;97.30;;;;;;4896634;29;20437;-76
2021/01/26 17:08:00;;;;;;;49.67;18.63;;;1.80;97.30;;;;;;4899863;29;20436;-78
2021/01/26 17:10:26;;;;;;;49.37;19.37;;;1.80;97.30;;;;;;4903976;29;20424;-79
2021/01/26 17:12:53;;;;;;;43.40;18.70;;;1.80;97.30;;;;;;4901823;29;20807;-76
2021/01/26 17:15:19;;;;;;;42.60;16.77;;;1.80;97.30;;;;;;4904677;29;20480;-78
2021/01/26 17:17:44;;;;;;;45.43;18.63;;;1.80;97.30;;;;;;4900754;29;20418;-75
2021/01/26 17:20:15;;;;;;;42.80;18.47;;;1.80;97.30;;;;;;4899803;29;20177;-78
2021/01/26 17:22:41;;;;;;;43.97;17.30;;;1.80;97.30;;;;;;4900089;29;20640;-78
2021/01/26 17:25:08;;;;;;;47.80;18.97;;;1.70;97.30;;;;;;4900004;29;20428;-79
2021/01/26 17:27:33;;;;;;;42.27;16.40;;;1.70;97.30;;;;;;4898967;29;20209;-74
2021/01/26 17:29:59;;;;;;;47.20;18.63;;;1.70;97.30;;;;;;4899309;29;20433;-75
2021/01/26 17:32:25;;;;;;;47.20;17.33;;;1.70;97.30;;;;;;4899363;29;20208;-78
2021/01/26 17:34:51;;;;;;;45.60;17.43;;;1.70;97.30;;;;;;4898016;29;20215;-76
2021/01/26 17:37:16;;;;;;;42.00;16.00;;;1.70;97.30;;;;;;4899009;29;20449;-76
2021/01/26 17:39:42;;;;;;;42.23;16.43;;;1.70;97.30;;;;;;4899205;29;20181;-74
2021/01/26 17:42:08;;;;;;;41.53;17.60;;;1.80;97.30;;;;;;4897532;29;20805;-74
2021/01/26 17:44:39;;;;;;;42.10;16.90;;;1.70;97.30;;;;;;4898033;29;20689;-74
2021/01/26 17:47:05;;;;;;;37.90;16.97;;;1.80;97.30;;;;;;4903359;29;20252;-77
2021/01/26 17:49:31;;;;;;;42.20;16.60;;;1.70;97.30;;;;;;4918916;29;20432;-79
2021/01/26 17:51:57;;;;;;;43.00;16.77;;;1.80;97.30;;;;;;4907115;29;20528;-77
2021/01/26 17:54:22;;;;;;;41.70;19.30;;;1.80;97.30;;;;;;4898901;29;20243;-76
2021/01/26 17:56:48;;;;;;;46.17;20.93;;;2.20;97.30;;;;;;4901180;29;20177;-84
2021/01/26 17:59:15;;;;;;;36.73;14.33;;;2.10;97.30;;;;;;4901913;29;20193;-85
2021/01/26 18:01:41;;;;;;;37.40;15.23;;;2.10;97.30;;;;;;4900666;29;20213;-87
2021/01/26 18:04:07;;;;;;;34.40;13.70;;;2.00;97.30;;;;;;4900222;29;20432;-84
2021/01/26 18:06:33;;;;;;;39.03;15.83;;;1.90;97.30;;;;;;4901438;29;20181;-83
2021/01/26 18:09:00;;;;;;;43.17;15.77;;;1.90;97.30;;;;;;4903026;29;20434;-84
2021/01/26 18:11:26;;;;;;;35.03;14.20;;;1.90;97.30;;;;;;4901870;29;20441;-83
2021/01/26 18:13:54;;;;;;;33.43;16.00;;;1.90;97.30;;;;;;4902651;29;20818;-83
2021/01/26 18:16:20;;;;;;;68.80;27.73;;;1.90;97.30;;;;;;4900642;29;20440;-69
2021/01/26 18:18:48;;;;;;;141.43;55.37;;;1.90;97.30;;;;;;4897124;29;20457;-69
2021/01/26 18:21:15;;;;;;;38.70;15.73;;;1.80;97.30;;;;;;4896466;29;21049;-70
2021/01/26 18:23:42;;;;;;;36.37;13.63;;;1.90;97.30;;;;;;4896950;29;20512;-73
2021/01/26 18:26:07;;;;;;;78.53;30.47;;;1.80;97.30;;;;;;4899486;29;20465;-76
2021/01/26 18:28:37;;;;;;;37.30;14.57;;;1.80;97.30;;;;;;4897230;29;20426;-75
2021/01/26 18:31:06;;;;;;;42.07;18.13;;;1.80;97.30;;;;;;4897014;29;20204;-74
2021/01/26 18:33:33;;;;;;;34.90;16.00;;;1.90;97.30;;;;;;4898113;29;20838;-76
2021/01/26 18:35:59;;;;;;;41.10;19.63;;;1.90;97.30;;;;;;4897221;29;20461;-76
2021/01/26 18:38:25;;;;;;;35.67;16.03;;;1.80;97.30;;;;;;4897069;29;20445;-75
2021/01/26 18:40:51;;;;;;;32.30;15.73;;;1.80;97.30;;;;;;4899346;29;20240;-75
2021/01/26 18:43:17;;;;;;;23.30;12.23;;;1.80;97.30;;;;;;4900219;29;20189;-71
2021/01/26 18:45:43;;;;;;;29.40;12.00;;;1.80;97.30;;;;;;4899823;29;20417;-72
2021/01/26 18:48:09;;;;;;;51.67;17.67;;;1.80;97.30;;;;;;4900133;29;20478;-72
2021/01/26 18:50:35;;;;;;;31.10;14.17;;;1.60;97.30;;;;;;4900503;29;20588;-73
2021/01/26 18:53:01;;;;;;;32.27;14.20;;;1.50;97.30;;;;;;4900230;29;20508;-72
2021/01/26 18:55:28;;;;;;;46.93;17.13;;;1.40;97.30;;;;;;4901456;29;20556;-72